sensor_id;sensor_type;location;lat;lon;timestamp;P1;P2;P0
69350;PMS7003;57106;51.446;-2.606;2022-11-20T18:27:12;2;2;
69350;PMS7003;57106;51.446;-2.606;2022-11-20T18:29:36;1;1;
69350;PMS7003;57106;51.446;-2.606;2022-11-20T18:34:27;3;3;
69350;PMS7003;57106;51.446;-2.606;2022-11-20T18:36:52;2;1;
69350;PMS7003;57106;51.446;-2.606;2022-11-20T18:39:18;4;4;
69350;PMS7003;57106;51.446;-2.606;2022-11-20T18:41:44;3;3;
69350;PMS7003;57106;51.446;-2.606;2022-11-20T18:44:12;3;2;
69350;PMS7003;57106;51.446;-2.606;2022-11-20T18:46:34;2;2;
69350;PMS7003;57106;51.446;-2.606;2022-11-20T18:49:02;6;4;
69350;PMS7003;57106;51.446;-2.606;2022-11-20T18:51:25;5;3;
69350;PMS7003;57106;51.446;-2.606;2022-11-20T18:53:50;3;2;
69350;PMS7003;57106;51.446;-2.606;2022-11-20T18:56:17;3;3;
69350;PMS7003;57106;51.446;-2.606;2022-11-20T18:58:42;6;3;
69350;PMS7003;57106;51.446;-2.606;2022-11-20T19:01:13;5;1;
69350;PMS7003;57106;51.446;-2.606;2022-11-20T19:03:33;1;1;
69350;PMS7003;57106;51.446;-2.606;2022-11-20T19:05:58;2;2;
69350;PMS7003;57106;51.446;-2.606;2022-11-20T19:13:16;4;2;
69350;PMS7003;57106;51.446;-2.606;2022-11-20T19:15:40;3;1;
69350;PMS7003;57106;51.446;-2.606;2022-11-20T19:18:05;3;2;
69350;PMS7003;57106;51.446;-2.606;2022-11-20T19:20:31;4;2;
69350;PMS7003;57106;51.446;-2.606;2022-11-20T19:22:57;3;2;
69350;PMS7003;57106;51.446;-2.606;2022-11-20T19:25:22;3;2;
69350;PMS7003;57106;51.446;-2.606;2022-11-20T19:27:47;2;1;
69350;PMS7003;57106;51.446;-2.606;2022-11-20T19:30:13;3;2;
69350;PMS7003;57106;51.446;-2.606;2022-11-20T19:32:38;4;1;
69350;PMS7003;57106;51.446;-2.606;2022-11-20T19:35:04;3;1;
69350;PMS7003;57106;51.446;-2.606;2022-11-20T19:37:31;3;2;
69350;PMS7003;57106;51.446;-2.606;2022-11-20T19:39:54;3;2;
69350;PMS7003;57106;51.446;-2.606;2022-11-20T20:01:43;2;1;
69350;PMS7003;57106;51.446;-2.606;2022-11-20T20:04:07;2;1;
69350;PMS7003;57106;51.446;-2.606;2022-11-20T20:13:49;11;9;
69350;PMS7003;57106;51.446;-2.606;2022-11-20T20:16:15;10;8;
69350;PMS7003;57106;51.446;-2.606;2022-11-20T20:18:39;20;19;
69350;PMS7003;57106;51.446;-2.606;2022-11-20T20:21:06;12;10;
69350;PMS7003;57106;51.446;-2.606;2022-11-20T20:35:40;32;25;
69350;PMS7003;57106;51.446;-2.606;2022-11-20T20:38:06;36;32;
69350;PMS7003;57106;51.446;-2.606;2022-11-20T20:40:29;31;26;
69350;PMS7003;57106;51.446;-2.606;2022-11-20T20:42:55;21;17;
69350;PMS7003;57106;51.446;-2.606;2022-11-20T20:47:45;23;21;
69350;PMS7003;57106;51.446;-2.606;2022-11-20T20:50:11;30;23;
69350;PMS7003;57106;51.446;-2.606;2022-11-20T20:52:36;25;21;
69350;PMS7003;57106;51.446;-2.606;2022-11-20T20:55:02;22;19;
69350;PMS7003;57106;51.446;-2.606;2022-11-20T20:57:27;22;19;
69350;PMS7003;57106;51.446;-2.606;2022-11-20T20:59:53;28;24;
69350;PMS7003;57106;51.446;-2.606;2022-11-20T21:02:18;28;21;
69350;PMS7003;57106;51.446;-2.606;2022-11-20T21:04:43;29;23;
69350;PMS7003;57106;51.446;-2.606;2022-11-20T21:07:08;29;27;
69350;PMS7003;57106;51.446;-2.606;2022-11-20T21:09:39;23;22;
69350;PMS7003;57106;51.446;-2.606;2022-11-20T21:19:16;49;46;
69350;PMS7003;57106;51.446;-2.606;2022-11-20T21:21:41;56;51;
69350;PMS7003;57106;51.446;-2.606;2022-11-20T21:24:11;57;55;
69350;PMS7003;57106;51.446;-2.606;2022-11-20T21:26:32;52;45;
69350;PMS7003;57106;51.446;-2.606;2022-11-20T21:28:57;43;40;
69350;PMS7003;57106;51.446;-2.606;2022-11-20T21:31:23;35;31;
69350;PMS7003;57106;51.446;-2.606;2022-11-20T21:33:48;35;35;
69350;PMS7003;57106;51.446;-2.606;2022-11-20T21:36:14;35;31;
69350;PMS7003;57106;51.446;-2.606;2022-11-20T21:38:38;47;42;
69350;PMS7003;57106;51.446;-2.606;2022-11-20T21:41:05;39;33;
69350;PMS7003;57106;51.446;-2.606;2022-11-20T21:45:59;52;42;
69350;PMS7003;57106;51.446;-2.606;2022-11-20T21:50:46;44;37;
69350;PMS7003;57106;51.446;-2.606;2022-11-20T21:53:11;32;29;
69350;PMS7003;57106;51.446;-2.606;2022-11-20T21:55:37;25;24;
69350;PMS7003;57106;51.446;-2.606;2022-11-20T21:58:02;33;27;
69350;PMS7003;57106;51.446;-2.606;2022-11-20T22:00:27;27;24;
69350;PMS7003;57106;51.446;-2.606;2022-11-20T22:02:53;17;17;
69350;PMS7003;57106;51.446;-2.606;2022-11-20T22:05:19;28;24;
69350;PMS7003;57106;51.446;-2.606;2022-11-20T22:07:45;21;19;
69350;PMS7003;57106;51.446;-2.606;2022-11-20T22:10:10;21;18;
69350;PMS7003;57106;51.446;-2.606;2022-11-20T22:12:35;19;19;
69350;PMS7003;57106;51.446;-2.606;2022-11-20T22:15:00;22;20;
69350;PMS7003;57106;51.446;-2.606;2022-11-20T22:17:25;24;20;
69350;PMS7003;57106;51.446;-2.606;2022-11-20T22:19:56;22;19;
69350;PMS7003;57106;51.446;-2.606;2022-11-20T22:22:17;20;20;
69350;PMS7003;57106;51.446;-2.606;2022-11-20T22:27:06;26;22;
